sensor_id;sensor_type;location;lat;lon;timestamp;P1;durP1;ratioP1;P2;durP2;ratioP2
14078;SDS011;7115;50.150;8.568;2022-10-13T00:00:47;13.37;;;10.03;;
14078;SDS011;7115;50.150;8.568;2022-10-13T00:03:15;15.90;;;9.40;;
14078;SDS011;7115;50.150;8.568;2022-10-13T00:05:46;16.13;;;9.37;;
14078;SDS011;7115;50.150;8.568;2022-10-13T00:08:16;14.77;;;8.27;;
14078;SDS011;7115;50.150;8.568;2022-10-13T00:10:46;12.40;;;8.17;;
14078;SDS011;7115;50.150;8.568;2022-10-13T00:13:15;11.70;;;8.33;;
14078;SDS011;7115;50.150;8.568;2022-10-13T00:15:43;15.83;;;8.80;;
14078;SDS011;7115;50.150;8.568;2022-10-13T00:18:11;22.13;;;9.47;;
14078;SDS011;7115;50.150;8.568;2022-10-13T00:20:42;16.87;;;9.20;;
14078;SDS011;7115;50.150;8.568;2022-10-13T00:23:11;25.37;;;11.00;;
14078;SDS011;7115;50.150;8.568;2022-10-13T00:25:39;18.53;;;9.83;;
14078;SDS011;7115;50.150;8.568;2022-10-13T00:28:10;24.47;;;9.83;;
14078;SDS011;7115;50.150;8.568;2022-10-13T00:30:38;16.50;;;9.20;;
14078;SDS011;7115;50.150;8.568;2022-10-13T00:33:05;15.87;;;9.30;;
14078;SDS011;7115;50.150;8.568;2022-10-13T00:35:32;17.43;;;10.20;;
14078;SDS011;7115;50.150;8.568;2022-10-13T00:37:59;17.03;;;10.63;;
14078;SDS011;7115;50.150;8.568;2022-10-13T00:40:26;16.00;;;9.83;;
14078;SDS011;7115;50.150;8.568;2022-10-13T00:42:52;18.13;;;9.60;;
14078;SDS011;7115;50.150;8.568;2022-10-13T00:45:20;19.97;;;9.47;;
14078;SDS011;7115;50.150;8.568;2022-10-13T00:47:52;15.03;;;8.80;;
14078;SDS011;7115;50.150;8.568;2022-10-13T00:50:26;19.10;;;9.63;;
14078;SDS011;7115;50.150;8.568;2022-10-13T00:52:57;13.23;;;9.70;;
14078;SDS011;7115;50.150;8.568;2022-10-13T00:55:25;16.13;;;9.60;;
14078;SDS011;7115;50.150;8.568;2022-10-13T00:57:56;14.37;;;9.13;;
14078;SDS011;7115;50.150;8.568;2022-10-13T01:00:31;16.97;;;9.60;;
14078;SDS011;7115;50.150;8.568;2022-10-13T01:02:58;14.67;;;8.87;;
14078;SDS011;7115;50.150;8.568;2022-10-13T01:05:26;13.23;;;9.00;;
14078;SDS011;7115;50.150;8.568;2022-10-13T01:07:53;16.67;;;9.83;;
14078;SDS011;7115;50.150;8.568;2022-10-13T01:13:02;14.17;;;9.80;;
14078;SDS011;7115;50.150;8.568;2022-10-13T01:15:44;16.93;;;10.20;;
14078;SDS011;7115;50.150;8.568;2022-10-13T01:18:21;16.33;;;9.73;;
14078;SDS011;7115;50.150;8.568;2022-10-13T01:21:16;14.57;;;9.23;;
14078;SDS011;7115;50.150;8.568;2022-10-13T01:27:13;15.93;;;9.50;;
14078;SDS011;7115;50.150;8.568;2022-10-13T01:35:22;14.53;;;9.90;;
14078;SDS011;7115;50.150;8.568;2022-10-13T01:38:06;18.63;;;11.43;;
14078;SDS011;7115;50.150;8.568;2022-10-13T01:40:41;22.17;;;10.50;;
14078;SDS011;7115;50.150;8.568;2022-10-13T01:43:19;15.60;;;9.37;;
14078;SDS011;7115;50.150;8.568;2022-10-13T01:48:29;17.03;;;9.27;;
14078;SDS011;7115;50.150;8.568;2022-10-13T01:50:57;18.37;;;9.77;;
14078;SDS011;7115;50.150;8.568;2022-10-13T01:53:25;17.23;;;9.97;;
14078;SDS011;7115;50.150;8.568;2022-10-13T01:55:58;18.33;;;9.53;;
14078;SDS011;7115;50.150;8.568;2022-10-13T01:58:26;19.57;;;9.97;;
14078;SDS011;7115;50.150;8.568;2022-10-13T02:06:43;14.60;;;8.97;;
14078;SDS011;7115;50.150;8.568;2022-10-13T02:09:40;13.77;;;9.37;;
14078;SDS011;7115;50.150;8.568;2022-10-13T02:12:32;18.07;;;10.43;;
14078;SDS011;7115;50.150;8.568;2022-10-13T02:15:28;18.20;;;9.43;;
14078;SDS011;7115;50.150;8.568;2022-10-13T02:18:00;16.73;;;10.37;;
14078;SDS011;7115;50.150;8.568;2022-10-13T02:20:29;16.17;;;9.97;;
14078;SDS011;7115;50.150;8.568;2022-10-13T02:22:59;16.43;;;9.43;;
14078;SDS011;7115;50.150;8.568;2022-10-13T02:25:29;20.93;;;9.03;;
14078;SDS011;7115;50.150;8.568;2022-10-13T02:27:57;18.80;;;9.87;;
14078;SDS011;7115;50.150;8.568;2022-10-13T02:30:26;13.20;;;8.90;;
14078;SDS011;7115;50.150;8.568;2022-10-13T02:32:55;12.90;;;8.87;;
14078;SDS011;7115;50.150;8.568;2022-10-13T02:35:21;17.03;;;8.57;;
14078;SDS011;7115;50.150;8.568;2022-10-13T02:37:49;14.60;;;9.50;;
14078;SDS011;7115;50.150;8.568;2022-10-13T02:40:16;17.70;;;8.93;;
14078;SDS011;7115;50.150;8.568;2022-10-13T02:42:42;18.23;;;9.20;;
14078;SDS011;7115;50.150;8.568;2022-10-13T02:45:09;24.70;;;9.63;;
14078;SDS011;7115;50.150;8.568;2022-10-13T02:47:36;23.23;;;10.13;;
14078;SDS011;7115;50.150;8.568;2022-10-13T02:50:03;12.73;;;8.73;;
14078;SDS011;7115;50.150;8.568;2022-10-13T02:52:30;12.23;;;7.67;;
14078;SDS011;7115;50.150;8.568;2022-10-13T02:54:57;19.93;;;9.07;;
14078;SDS011;7115;50.150;8.568;2022-10-13T02:57:24;23.23;;;10.30;;
14078;SDS011;7115;50.150;8.568;2022-10-13T02:59:51;21.87;;;10.10;;
14078;SDS011;7115;50.150;8.568;2022-10-13T03:02:17;25.77;;;10.70;;
14078;SDS011;7115;50.150;8.568;2022-10-13T03:04:45;35.40;;;11.17;;
14078;SDS011;7115;50.150;8.568;2022-10-13T03:07:12;32.00;;;12.70;;
14078;SDS011;7115;50.150;8.568;2022-10-13T03:09:38;33.93;;;14.27;;
14078;SDS011;7115;50.150;8.568;2022-10-13T03:12:05;86.17;;;15.03;;
14078;SDS011;7115;50.150;8.568;2022-10-13T03:14:32;57.67;;;16.13;;
14078;SDS011;7115;50.150;8.568;2022-10-13T03:16:59;41.87;;;13.80;;
14078;SDS011;7115;50.150;8.568;2022-10-13T03:19:26;41.43;;;14.93;;
14078;SDS011;7115;50.150;8.568;2022-10-13T03:21:53;44.70;;;14.83;;
14078;SDS011;7115;50.150;8.568;2022-10-13T03:24:20;44.70;;;14.87;;
14078;SDS011;7115;50.150;8.568;2022-10-13T03:26:46;91.83;;;15.80;;
14078;SDS011;7115;50.150;8.568;2022-10-13T03:29:14;109.10;;;16.87;;
14078;SDS011;7115;50.150;8.568;2022-10-13T03:31:41;63.70;;;14.67;;
14078;SDS011;7115;50.150;8.568;2022-10-13T03:34:09;51.57;;;15.63;;
14078;SDS011;7115;50.150;8.568;2022-10-13T03:36:36;86.63;;;17.10;;
14078;SDS011;7115;50.150;8.568;2022-10-13T03:39:03;115.10;;;16.30;;
14078;SDS011;7115;50.150;8.568;2022-10-13T03:41:30;36.40;;;14.67;;
14078;SDS011;7115;50.150;8.568;2022-10-13T03:43:57;111.83;;;16.57;;
14078;SDS011;7115;50.150;8.568;2022-10-13T03:46:25;42.27;;;15.43;;
14078;SDS011;7115;50.150;8.568;2022-10-13T03:48:54;120.00;;;18.63;;
14078;SDS011;7115;50.150;8.568;2022-10-13T03:51:21;137.77;;;20.20;;
14078;SDS011;7115;50.150;8.568;2022-10-13T03:53:49;92.27;;;17.07;;
14078;SDS011;7115;50.150;8.568;2022-10-13T03:56:18;55.70;;;16.17;;
14078;SDS011;7115;50.150;8.568;2022-10-13T03:58:46;88.40;;;16.53;;
14078;SDS011;7115;50.150;8.568;2022-10-13T04:01:19;72.07;;;14.40;;
14078;SDS011;7115;50.150;8.568;2022-10-13T04:03:50;36.03;;;16.40;;
14078;SDS011;7115;50.150;8.568;2022-10-13T04:06:18;31.83;;;14.67;;
14078;SDS011;7115;50.150;8.568;2022-10-13T04:08:45;27.10;;;13.87;;
14078;SDS011;7115;50.150;8.568;2022-10-13T04:11:13;91.67;;;15.17;;
14078;SDS011;7115;50.150;8.568;2022-10-13T04:13:41;37.13;;;15.87;;
14078;SDS011;7115;50.150;8.568;2022-10-13T04:16:11;36.17;;;14.30;;
14078;SDS011;7115;50.150;8.568;2022-10-13T04:18:42;39.07;;;14.50;;
14078;SDS011;7115;50.150;8.568;2022-10-13T04:21:11;39.47;;;16.47;;
14078;SDS011;7115;50.150;8.568;2022-10-13T04:23:39;29.73;;;14.37;;
14078;SDS011;7115;50.150;8.568;2022-10-13T04:26:13;26.37;;;13.00;;
14078;SDS011;7115;50.150;8.568;2022-10-13T04:28:47;31.87;;;13.93;;
14078;SDS011;7115;50.150;8.568;2022-10-13T04:31:15;25.50;;;13.80;;
14078;SDS011;7115;50.150;8.568;2022-10-13T04:33:42;21.80;;;12.60;;
14078;SDS011;7115;50.150;8.568;2022-10-13T04:36:11;28.17;;;13.63;;
14078;SDS011;7115;50.150;8.568;2022-10-13T04:38:39;24.87;;;12.00;;
14078;SDS011;7115;50.150;8.568;2022-10-13T04:41:07;25.87;;;12.77;;
14078;SDS011;7115;50.150;8.568;2022-10-13T04:43:35;22.03;;;11.43;;
14078;SDS011;7115;50.150;8.568;2022-10-13T04:46:02;22.70;;;11.90;;
14078;SDS011;7115;50.150;8.568;2022-10-13T04:48:30;19.83;;;11.67;;
14078;SDS011;7115;50.150;8.568;2022-10-13T04:51:01;21.57;;;11.43;;
14078;SDS011;7115;50.150;8.568;2022-10-13T04:53:36;18.10;;;10.83;;
14078;SDS011;7115;50.150;8.568;2022-10-13T04:56:03;24.43;;;11.53;;
14078;SDS011;7115;50.150;8.568;2022-10-13T04:58:33;21.20;;;11.17;;
14078;SDS011;7115;50.150;8.568;2022-10-13T05:01:02;25.40;;;11.20;;
14078;SDS011;7115;50.150;8.568;2022-10-13T05:03:30;22.90;;;12.53;;
14078;SDS011;7115;50.150;8.568;2022-10-13T05:05:57;21.17;;;12.13;;
14078;SDS011;7115;50.150;8.568;2022-10-13T05:08:24;22.27;;;12.07;;
14078;SDS011;7115;50.150;8.568;2022-10-13T05:10:52;19.37;;;11.87;;
14078;SDS011;7115;50.150;8.568;2022-10-13T05:13:23;24.50;;;12.80;;
14078;SDS011;7115;50.150;8.568;2022-10-13T05:15:50;21.67;;;12.60;;
14078;SDS011;7115;50.150;8.568;2022-10-13T05:18:17;26.97;;;12.70;;
14078;SDS011;7115;50.150;8.568;2022-10-13T05:20:43;24.27;;;12.50;;
14078;SDS011;7115;50.150;8.568;2022-10-13T05:23:11;24.97;;;13.33;;
14078;SDS011;7115;50.150;8.568;2022-10-13T05:25:39;27.27;;;13.77;;
14078;SDS011;7115;50.150;8.568;2022-10-13T05:28:06;27.07;;;14.50;;
14078;SDS011;7115;50.150;8.568;2022-10-13T05:30:34;28.30;;;14.37;;
14078;SDS011;7115;50.150;8.568;2022-10-13T05:33:01;32.00;;;14.80;;
14078;SDS011;7115;50.150;8.568;2022-10-13T05:35:27;30.73;;;14.87;;
14078;SDS011;7115;50.150;8.568;2022-10-13T05:37:54;34.93;;;15.60;;
14078;SDS011;7115;50.150;8.568;2022-10-13T05:40:21;38.90;;;15.53;;
14078;SDS011;7115;50.150;8.568;2022-10-13T05:42:51;44.27;;;14.83;;
14078;SDS011;7115;50.150;8.568;2022-10-13T05:45:18;33.43;;;16.30;;
14078;SDS011;7115;50.150;8.568;2022-10-13T05:47:47;29.57;;;15.27;;
14078;SDS011;7115;50.150;8.568;2022-10-13T05:50:13;25.90;;;15.00;;
14078;SDS011;7115;50.150;8.568;2022-10-13T05:52:40;26.23;;;14.80;;
14078;SDS011;7115;50.150;8.568;2022-10-13T05:55:08;29.90;;;14.47;;
14078;SDS011;7115;50.150;8.568;2022-10-13T05:57:39;23.87;;;14.37;;
14078;SDS011;7115;50.150;8.568;2022-10-13T06:00:17;21.57;;;13.57;;
14078;SDS011;7115;50.150;8.568;2022-10-13T06:02:52;19.60;;;12.93;;
14078;SDS011;7115;50.150;8.568;2022-10-13T06:05:25;18.77;;;12.27;;
14078;SDS011;7115;50.150;8.568;2022-10-13T06:07:53;21.27;;;12.50;;
14078;SDS011;7115;50.150;8.568;2022-10-13T06:10:21;22.53;;;13.17;;
14078;SDS011;7115;50.150;8.568;2022-10-13T06:12:48;19.87;;;13.07;;
14078;SDS011;7115;50.150;8.568;2022-10-13T06:15:15;31.67;;;14.67;;
14078;SDS011;7115;50.150;8.568;2022-10-13T06:17:42;25.43;;;15.00;;
14078;SDS011;7115;50.150;8.568;2022-10-13T06:20:09;29.17;;;14.27;;
14078;SDS011;7115;50.150;8.568;2022-10-13T06:22:36;27.23;;;14.03;;
14078;SDS011;7115;50.150;8.568;2022-10-13T06:25:04;28.90;;;14.47;;
14078;SDS011;7115;50.150;8.568;2022-10-13T06:27:32;25.13;;;14.43;;
14078;SDS011;7115;50.150;8.568;2022-10-13T06:29:59;31.73;;;14.97;;
14078;SDS011;7115;50.150;8.568;2022-10-13T06:32:25;30.33;;;15.20;;
14078;SDS011;7115;50.150;8.568;2022-10-13T06:34:52;29.60;;;15.60;;
14078;SDS011;7115;50.150;8.568;2022-10-13T06:37:19;31.03;;;14.40;;
14078;SDS011;7115;50.150;8.568;2022-10-13T06:39:52;28.37;;;14.50;;
14078;SDS011;7115;50.150;8.568;2022-10-13T06:42:19;39.47;;;15.37;;
14078;SDS011;7115;50.150;8.568;2022-10-13T06:44:46;26.90;;;14.47;;
14078;SDS011;7115;50.150;8.568;2022-10-13T06:47:13;29.47;;;14.10;;
14078;SDS011;7115;50.150;8.568;2022-10-13T06:49:39;27.40;;;15.27;;
14078;SDS011;7115;50.150;8.568;2022-10-13T06:52:06;29.10;;;15.30;;
14078;SDS011;7115;50.150;8.568;2022-10-13T06:54:33;23.70;;;13.87;;
14078;SDS011;7115;50.150;8.568;2022-10-13T06:57:00;24.33;;;13.07;;
14078;SDS011;7115;50.150;8.568;2022-10-13T06:59:27;27.97;;;14.97;;
14078;SDS011;7115;50.150;8.568;2022-10-13T07:01:53;27.37;;;13.50;;
14078;SDS011;7115;50.150;8.568;2022-10-13T07:04:20;27.60;;;12.67;;
14078;SDS011;7115;50.150;8.568;2022-10-13T07:06:48;25.40;;;14.30;;
14078;SDS011;7115;50.150;8.568;2022-10-13T07:09:16;22.97;;;12.43;;
14078;SDS011;7115;50.150;8.568;2022-10-13T07:11:43;23.47;;;13.37;;
14078;SDS011;7115;50.150;8.568;2022-10-13T07:14:10;25.63;;;13.47;;
14078;SDS011;7115;50.150;8.568;2022-10-13T07:16:38;21.27;;;12.37;;
14078;SDS011;7115;50.150;8.568;2022-10-13T07:19:05;21.60;;;12.40;;
14078;SDS011;7115;50.150;8.568;2022-10-13T07:21:31;23.37;;;13.23;;
14078;SDS011;7115;50.150;8.568;2022-10-13T07:24:00;23.20;;;12.80;;
14078;SDS011;7115;50.150;8.568;2022-10-13T07:26:27;24.63;;;14.63;;
14078;SDS011;7115;50.150;8.568;2022-10-13T07:28:54;28.37;;;13.67;;
14078;SDS011;7115;50.150;8.568;2022-10-13T07:31:20;24.13;;;13.67;;
14078;SDS011;7115;50.150;8.568;2022-10-13T07:33:48;21.90;;;12.33;;
14078;SDS011;7115;50.150;8.568;2022-10-13T07:36:17;22.53;;;12.60;;
14078;SDS011;7115;50.150;8.568;2022-10-13T07:38:44;20.13;;;12.67;;
14078;SDS011;7115;50.150;8.568;2022-10-13T07:41:12;23.50;;;13.37;;
14078;SDS011;7115;50.150;8.568;2022-10-13T07:43:39;31.90;;;14.10;;
14078;SDS011;7115;50.150;8.568;2022-10-13T07:46:06;25.03;;;13.40;;
14078;SDS011;7115;50.150;8.568;2022-10-13T07:48:34;27.07;;;14.17;;
14078;SDS011;7115;50.150;8.568;2022-10-13T07:51:05;30.77;;;14.17;;
14078;SDS011;7115;50.150;8.568;2022-10-13T07:53:33;29.30;;;14.57;;
14078;SDS011;7115;50.150;8.568;2022-10-13T07:56:01;22.53;;;12.27;;
14078;SDS011;7115;50.150;8.568;2022-10-13T07:58:29;22.50;;;14.90;;
14078;SDS011;7115;50.150;8.568;2022-10-13T08:00:59;25.43;;;13.83;;
14078;SDS011;7115;50.150;8.568;2022-10-13T08:03:27;26.00;;;14.20;;
14078;SDS011;7115;50.150;8.568;2022-10-13T08:05:56;23.17;;;13.20;;
14078;SDS011;7115;50.150;8.568;2022-10-13T08:08:24;28.73;;;15.03;;
14078;SDS011;7115;50.150;8.568;2022-10-13T08:10:51;25.70;;;14.67;;
14078;SDS011;7115;50.150;8.568;2022-10-13T08:13:19;25.37;;;13.80;;
14078;SDS011;7115;50.150;8.568;2022-10-13T08:15:45;33.80;;;14.90;;
14078;SDS011;7115;50.150;8.568;2022-10-13T08:18:13;30.10;;;14.80;;
14078;SDS011;7115;50.150;8.568;2022-10-13T08:20:41;37.00;;;15.23;;
14078;SDS011;7115;50.150;8.568;2022-10-13T08:23:09;28.97;;;14.90;;
14078;SDS011;7115;50.150;8.568;2022-10-13T08:25:41;28.23;;;15.50;;
14078;SDS011;7115;50.150;8.568;2022-10-13T08:30:49;24.27;;;14.00;;
14078;SDS011;7115;50.150;8.568;2022-10-13T08:33:17;29.27;;;15.30;;
14078;SDS011;7115;50.150;8.568;2022-10-13T08:35:44;22.67;;;14.20;;
14078;SDS011;7115;50.150;8.568;2022-10-13T08:38:11;28.30;;;15.27;;
14078;SDS011;7115;50.150;8.568;2022-10-13T08:40:38;28.60;;;14.63;;
14078;SDS011;7115;50.150;8.568;2022-10-13T08:43:07;28.27;;;15.37;;
14078;SDS011;7115;50.150;8.568;2022-10-13T08:45:40;26.50;;;14.90;;
14078;SDS011;7115;50.150;8.568;2022-10-13T08:48:15;28.07;;;14.80;;
14078;SDS011;7115;50.150;8.568;2022-10-13T08:50:45;27.33;;;15.17;;
14078;SDS011;7115;50.150;8.568;2022-10-13T08:58:53;22.13;;;13.83;;
14078;SDS011;7115;50.150;8.568;2022-10-13T09:01:22;30.17;;;14.23;;
14078;SDS011;7115;50.150;8.568;2022-10-13T09:03:59;27.53;;;14.57;;
14078;SDS011;7115;50.150;8.568;2022-10-13T09:06:29;26.77;;;15.77;;
14078;SDS011;7115;50.150;8.568;2022-10-13T09:09:03;28.40;;;15.40;;
14078;SDS011;7115;50.150;8.568;2022-10-13T09:11:33;28.93;;;14.17;;
14078;SDS011;7115;50.150;8.568;2022-10-13T09:14:05;22.67;;;14.30;;
14078;SDS011;7115;50.150;8.568;2022-10-13T09:16:36;25.43;;;15.10;;
14078;SDS011;7115;50.150;8.568;2022-10-13T09:21:54;28.70;;;15.40;;
14078;SDS011;7115;50.150;8.568;2022-10-13T09:24:24;25.93;;;14.13;;
14078;SDS011;7115;50.150;8.568;2022-10-13T09:27:05;24.03;;;15.13;;
14078;SDS011;7115;50.150;8.568;2022-10-13T09:29:37;25.50;;;14.37;;
14078;SDS011;7115;50.150;8.568;2022-10-13T09:32:16;28.07;;;15.57;;
14078;SDS011;7115;50.150;8.568;2022-10-13T09:34:49;26.17;;;14.67;;
14078;SDS011;7115;50.150;8.568;2022-10-13T09:37:21;23.40;;;13.80;;
14078;SDS011;7115;50.150;8.568;2022-10-13T09:42:39;28.37;;;14.43;;
14078;SDS011;7115;50.150;8.568;2022-10-13T09:45:16;32.00;;;15.73;;
14078;SDS011;7115;50.150;8.568;2022-10-13T09:47:49;27.43;;;15.97;;
14078;SDS011;7115;50.150;8.568;2022-10-13T09:50:28;26.23;;;15.10;;
14078;SDS011;7115;50.150;8.568;2022-10-13T09:53:39;29.30;;;15.70;;
14078;SDS011;7115;50.150;8.568;2022-10-13T09:55:47;32.90;;;15.43;;
14078;SDS011;7115;50.150;8.568;2022-10-13T10:00:44;29.73;;;15.87;;
14078;SDS011;7115;50.150;8.568;2022-10-13T10:05:56;23.73;;;14.40;;
14078;SDS011;7115;50.150;8.568;2022-10-13T10:11:36;31.20;;;14.90;;
14078;SDS011;7115;50.150;8.568;2022-10-13T10:16:56;31.53;;;17.43;;
14078;SDS011;7115;50.150;8.568;2022-10-13T10:19:52;34.17;;;18.57;;
14078;SDS011;7115;50.150;8.568;2022-10-13T10:22:51;37.83;;;19.73;;
14078;SDS011;7115;50.150;8.568;2022-10-13T10:25:39;39.63;;;19.53;;
14078;SDS011;7115;50.150;8.568;2022-10-13T10:28:36;34.07;;;18.43;;
14078;SDS011;7115;50.150;8.568;2022-10-13T10:33:41;35.23;;;18.63;;
14078;SDS011;7115;50.150;8.568;2022-10-13T10:36:21;35.07;;;19.33;;
14078;SDS011;7115;50.150;8.568;2022-10-13T10:39:11;40.50;;;20.60;;
14078;SDS011;7115;50.150;8.568;2022-10-13T10:41:49;36.43;;;19.20;;
14078;SDS011;7115;50.150;8.568;2022-10-13T10:44:32;43.33;;;22.07;;
14078;SDS011;7115;50.150;8.568;2022-10-13T10:47:08;36.73;;;20.90;;
14078;SDS011;7115;50.150;8.568;2022-10-13T10:49:47;41.23;;;21.77;;
14078;SDS011;7115;50.150;8.568;2022-10-13T10:52:19;43.53;;;22.43;;
14078;SDS011;7115;50.150;8.568;2022-10-13T10:55:07;44.27;;;23.57;;
14078;SDS011;7115;50.150;8.568;2022-10-13T11:00:22;45.20;;;22.73;;
14078;SDS011;7115;50.150;8.568;2022-10-13T11:08:50;47.30;;;23.27;;
14078;SDS011;7115;50.150;8.568;2022-10-13T11:13:53;33.90;;;19.53;;
14078;SDS011;7115;50.150;8.568;2022-10-13T11:16:57;36.50;;;20.23;;
14078;SDS011;7115;50.150;8.568;2022-10-13T11:19:34;36.77;;;20.63;;
14078;SDS011;7115;50.150;8.568;2022-10-13T11:48:55;26.30;;;16.87;;
14078;SDS011;7115;50.150;8.568;2022-10-13T11:57:25;30.77;;;17.23;;
14078;SDS011;7115;50.150;8.568;2022-10-13T11:59:54;28.67;;;16.73;;
14078;SDS011;7115;50.150;8.568;2022-10-13T12:02:22;28.27;;;15.83;;
14078;SDS011;7115;50.150;8.568;2022-10-13T12:04:58;29.37;;;17.23;;
14078;SDS011;7115;50.150;8.568;2022-10-13T12:07:44;27.03;;;16.00;;
14078;SDS011;7115;50.150;8.568;2022-10-13T12:10:16;32.10;;;20.03;;
14078;SDS011;7115;50.150;8.568;2022-10-13T12:12:54;32.97;;;18.23;;
14078;SDS011;7115;50.150;8.568;2022-10-13T12:15:29;29.30;;;17.10;;
14078;SDS011;7115;50.150;8.568;2022-10-13T12:18:16;27.43;;;15.87;;
14078;SDS011;7115;50.150;8.568;2022-10-13T12:21:11;26.40;;;14.77;;
14078;SDS011;7115;50.150;8.568;2022-10-13T12:23:45;28.53;;;14.57;;
14078;SDS011;7115;50.150;8.568;2022-10-13T12:26:22;23.80;;;14.37;;
14078;SDS011;7115;50.150;8.568;2022-10-13T12:31:27;30.13;;;14.30;;
14078;SDS011;7115;50.150;8.568;2022-10-13T12:36:44;29.27;;;14.83;;
14078;SDS011;7115;50.150;8.568;2022-10-13T12:39:16;26.00;;;14.93;;
14078;SDS011;7115;50.150;8.568;2022-10-13T12:41:45;29.20;;;15.13;;
14078;SDS011;7115;50.150;8.568;2022-10-13T12:44:14;30.17;;;15.20;;
14078;SDS011;7115;50.150;8.568;2022-10-13T12:46:56;30.53;;;14.43;;
14078;SDS011;7115;50.150;8.568;2022-10-13T12:49:25;27.57;;;14.30;;
14078;SDS011;7115;50.150;8.568;2022-10-13T12:54:37;36.37;;;22.10;;
14078;SDS011;7115;50.150;8.568;2022-10-13T12:57:17;27.70;;;15.10;;
14078;SDS011;7115;50.150;8.568;2022-10-13T13:00:03;31.90;;;15.33;;
14078;SDS011;7115;50.150;8.568;2022-10-13T13:02:53;28.53;;;15.47;;
14078;SDS011;7115;50.150;8.568;2022-10-13T13:07:59;34.77;;;15.83;;
14078;SDS011;7115;50.150;8.568;2022-10-13T13:10:27;27.17;;;15.00;;
14078;SDS011;7115;50.150;8.568;2022-10-13T13:12:54;27.43;;;15.50;;
14078;SDS011;7115;50.150;8.568;2022-10-13T13:17:51;31.83;;;15.67;;
14078;SDS011;7115;50.150;8.568;2022-10-13T13:20:28;26.13;;;14.93;;
14078;SDS011;7115;50.150;8.568;2022-10-13T13:22:57;27.50;;;15.57;;
14078;SDS011;7115;50.150;8.568;2022-10-13T13:25:25;29.77;;;16.07;;
14078;SDS011;7115;50.150;8.568;2022-10-13T13:27:52;28.70;;;16.93;;
14078;SDS011;7115;50.150;8.568;2022-10-13T13:30:20;30.27;;;16.60;;
14078;SDS011;7115;50.150;8.568;2022-10-13T13:32:48;31.20;;;16.70;;
14078;SDS011;7115;50.150;8.568;2022-10-13T13:35:15;24.87;;;16.03;;
14078;SDS011;7115;50.150;8.568;2022-10-13T13:37:48;31.67;;;16.10;;
14078;SDS011;7115;50.150;8.568;2022-10-13T13:40:18;28.23;;;15.70;;
14078;SDS011;7115;50.150;8.568;2022-10-13T13:42:50;26.70;;;15.90;;
14078;SDS011;7115;50.150;8.568;2022-10-13T13:45:18;26.07;;;15.40;;
14078;SDS011;7115;50.150;8.568;2022-10-13T13:47:46;30.70;;;16.57;;
14078;SDS011;7115;50.150;8.568;2022-10-13T13:50:18;29.60;;;16.23;;
14078;SDS011;7115;50.150;8.568;2022-10-13T13:52:47;29.33;;;17.10;;
14078;SDS011;7115;50.150;8.568;2022-10-13T13:55:14;27.67;;;17.27;;
14078;SDS011;7115;50.150;8.568;2022-10-13T13:57:42;27.23;;;15.97;;
14078;SDS011;7115;50.150;8.568;2022-10-13T14:00:12;32.93;;;16.03;;
14078;SDS011;7115;50.150;8.568;2022-10-13T14:02:40;32.17;;;16.87;;
14078;SDS011;7115;50.150;8.568;2022-10-13T14:05:09;30.47;;;16.80;;
14078;SDS011;7115;50.150;8.568;2022-10-13T14:07:36;32.43;;;17.20;;
14078;SDS011;7115;50.150;8.568;2022-10-13T14:10:04;28.00;;;16.70;;
14078;SDS011;7115;50.150;8.568;2022-10-13T14:12:32;30.07;;;16.67;;
14078;SDS011;7115;50.150;8.568;2022-10-13T14:14:59;27.30;;;16.23;;
14078;SDS011;7115;50.150;8.568;2022-10-13T14:17:26;32.80;;;16.90;;
14078;SDS011;7115;50.150;8.568;2022-10-13T14:19:53;26.73;;;16.30;;
14078;SDS011;7115;50.150;8.568;2022-10-13T14:22:21;27.67;;;15.53;;
14078;SDS011;7115;50.150;8.568;2022-10-13T14:24:48;26.37;;;15.63;;
14078;SDS011;7115;50.150;8.568;2022-10-13T14:27:15;22.63;;;15.50;;
14078;SDS011;7115;50.150;8.568;2022-10-13T14:29:42;27.00;;;15.60;;
14078;SDS011;7115;50.150;8.568;2022-10-13T14:32:08;32.90;;;16.83;;
14078;SDS011;7115;50.150;8.568;2022-10-13T14:34:35;27.33;;;16.03;;
14078;SDS011;7115;50.150;8.568;2022-10-13T14:37:02;29.20;;;16.90;;
14078;SDS011;7115;50.150;8.568;2022-10-13T14:39:29;30.67;;;16.90;;
14078;SDS011;7115;50.150;8.568;2022-10-13T14:41:55;28.17;;;16.67;;
14078;SDS011;7115;50.150;8.568;2022-10-13T14:44:22;34.00;;;16.50;;
14078;SDS011;7115;50.150;8.568;2022-10-13T14:46:50;29.43;;;16.13;;
14078;SDS011;7115;50.150;8.568;2022-10-13T14:49:17;25.77;;;16.50;;
14078;SDS011;7115;50.150;8.568;2022-10-13T14:51:43;29.07;;;16.23;;
14078;SDS011;7115;50.150;8.568;2022-10-13T14:54:10;28.13;;;16.07;;
14078;SDS011;7115;50.150;8.568;2022-10-13T14:56:36;30.43;;;16.90;;
14078;SDS011;7115;50.150;8.568;2022-10-13T14:59:04;25.53;;;15.13;;
14078;SDS011;7115;50.150;8.568;2022-10-13T15:01:32;25.50;;;16.20;;
14078;SDS011;7115;50.150;8.568;2022-10-13T15:03:59;26.43;;;16.93;;
14078;SDS011;7115;50.150;8.568;2022-10-13T15:06:27;23.40;;;14.93;;
14078;SDS011;7115;50.150;8.568;2022-10-13T15:08:54;27.23;;;15.37;;
14078;SDS011;7115;50.150;8.568;2022-10-13T15:11:21;25.87;;;16.77;;
14078;SDS011;7115;50.150;8.568;2022-10-13T15:13:49;24.23;;;15.40;;
14078;SDS011;7115;50.150;8.568;2022-10-13T15:16:20;28.90;;;16.27;;
14078;SDS011;7115;50.150;8.568;2022-10-13T15:18:48;29.83;;;16.27;;
14078;SDS011;7115;50.150;8.568;2022-10-13T15:21:15;27.07;;;15.60;;
14078;SDS011;7115;50.150;8.568;2022-10-13T15:23:42;31.20;;;15.97;;
14078;SDS011;7115;50.150;8.568;2022-10-13T15:26:10;29.03;;;15.97;;
14078;SDS011;7115;50.150;8.568;2022-10-13T15:28:39;25.23;;;16.53;;
14078;SDS011;7115;50.150;8.568;2022-10-13T15:31:07;26.80;;;17.10;;
14078;SDS011;7115;50.150;8.568;2022-10-13T15:33:34;25.63;;;16.87;;
14078;SDS011;7115;50.150;8.568;2022-10-13T15:36:00;28.57;;;16.87;;
14078;SDS011;7115;50.150;8.568;2022-10-13T15:38:28;34.77;;;17.83;;
14078;SDS011;7115;50.150;8.568;2022-10-13T15:40:58;27.47;;;17.57;;
14078;SDS011;7115;50.150;8.568;2022-10-13T15:43:26;28.70;;;16.83;;
14078;SDS011;7115;50.150;8.568;2022-10-13T15:45:54;26.27;;;15.87;;
14078;SDS011;7115;50.150;8.568;2022-10-13T15:48:28;29.50;;;17.30;;
14078;SDS011;7115;50.150;8.568;2022-10-13T15:50:55;26.43;;;16.43;;
14078;SDS011;7115;50.150;8.568;2022-10-13T15:53:22;26.90;;;16.60;;
14078;SDS011;7115;50.150;8.568;2022-10-13T15:55:49;26.03;;;16.10;;
14078;SDS011;7115;50.150;8.568;2022-10-13T15:58:16;29.00;;;16.57;;
14078;SDS011;7115;50.150;8.568;2022-10-13T16:00:43;28.83;;;16.43;;
14078;SDS011;7115;50.150;8.568;2022-10-13T16:03:12;29.97;;;17.07;;
14078;SDS011;7115;50.150;8.568;2022-10-13T16:05:41;26.83;;;16.30;;
14078;SDS011;7115;50.150;8.568;2022-10-13T16:08:08;26.57;;;15.57;;
14078;SDS011;7115;50.150;8.568;2022-10-13T16:10:41;26.50;;;16.20;;
14078;SDS011;7115;50.150;8.568;2022-10-13T16:13:10;24.83;;;15.53;;
14078;SDS011;7115;50.150;8.568;2022-10-13T16:15:39;25.33;;;15.77;;
14078;SDS011;7115;50.150;8.568;2022-10-13T16:18:07;25.67;;;15.17;;
14078;SDS011;7115;50.150;8.568;2022-10-13T16:20:33;23.80;;;15.03;;
14078;SDS011;7115;50.150;8.568;2022-10-13T16:23:03;28.43;;;16.87;;
14078;SDS011;7115;50.150;8.568;2022-10-13T16:25:30;26.27;;;16.90;;
14078;SDS011;7115;50.150;8.568;2022-10-13T16:27:57;21.43;;;14.30;;
14078;SDS011;7115;50.150;8.568;2022-10-13T16:30:26;25.93;;;15.60;;
14078;SDS011;7115;50.150;8.568;2022-10-13T16:32:55;28.63;;;15.20;;
14078;SDS011;7115;50.150;8.568;2022-10-13T16:35:23;28.10;;;16.23;;
14078;SDS011;7115;50.150;8.568;2022-10-13T16:37:49;25.90;;;15.00;;